createdAt,value
2023-05-12T00:01:16.629Z,2.10
2023-05-12T00:03:43.446Z,1.65
2023-05-12T00:06:10.537Z,1.60
2023-05-12T00:08:37.221Z,1.35
2023-05-12T00:11:04.168Z,1.30
2023-05-12T00:13:30.977Z,1.02
2023-05-12T00:15:59.343Z,0.90
2023-05-12T00:18:28.370Z,0.80
2023-05-12T00:20:55.413Z,0.77
2023-05-12T00:23:22.851Z,1.50
2023-05-12T00:25:50.547Z,0.93
2023-05-12T00:28:18.754Z,0.55
2023-05-12T00:30:45.549Z,0.60
2023-05-12T00:33:12.443Z,0.70
2023-05-12T00:35:39.219Z,0.68
2023-05-12T00:38:06.009Z,0.93
2023-05-12T00:40:32.719Z,1.17
2023-05-12T00:42:59.443Z,0.95
2023-05-12T00:45:26.614Z,1.25
2023-05-12T00:47:57.155Z,1.25
2023-05-12T00:50:23.858Z,1.50
2023-05-12T00:52:50.770Z,1.48
2023-05-12T00:55:17.522Z,1.80
2023-05-12T00:57:44.472Z,1.42
2023-05-12T01:00:11.965Z,0.80
2023-05-12T01:02:39.170Z,0.95
2023-05-12T01:05:06.678Z,0.95
2023-05-12T01:07:33.830Z,2.13
2023-05-12T01:10:00.575Z,1.30
2023-05-12T01:12:28.114Z,2.00
2023-05-12T01:14:56.242Z,1.70
2023-05-12T01:17:28.663Z,1.63
2023-05-12T01:20:00.804Z,1.88
2023-05-12T01:22:31.317Z,2.50
2023-05-12T01:25:00.237Z,1.77
2023-05-12T01:27:27.786Z,2.22
2023-05-12T01:29:56.954Z,2.47
2023-05-12T01:32:24.177Z,2.67
2023-05-12T01:34:51.198Z,2.55
2023-05-12T01:37:18.260Z,3.13
2023-05-12T01:39:45.444Z,2.22
2023-05-12T01:42:12.223Z,2.67
2023-05-12T01:44:39.187Z,2.47
2023-05-12T01:47:10.036Z,1.90
2023-05-12T01:49:37.539Z,1.70
2023-05-12T01:52:04.562Z,1.95
2023-05-12T01:54:31.256Z,1.95
2023-05-12T01:56:58.145Z,1.75
2023-05-12T01:59:24.854Z,2.45
2023-05-12T02:01:51.727Z,2.28
2023-05-12T02:04:18.408Z,2.10
2023-05-12T02:06:45.102Z,2.08
2023-05-12T02:09:11.801Z,2.40
2023-05-12T02:11:38.518Z,2.05
2023-05-12T02:14:05.279Z,2.72
2023-05-12T02:16:32.032Z,2.53
2023-05-12T02:18:58.708Z,2.30
2023-05-12T02:21:25.946Z,2.13
2023-05-12T02:23:52.657Z,2.22
2023-05-12T02:26:19.752Z,2.55
2023-05-12T02:28:46.380Z,2.42
2023-05-12T02:31:12.980Z,2.17
2023-05-12T02:33:39.606Z,1.60
2023-05-12T02:36:06.624Z,1.65
2023-05-12T02:38:33.201Z,2.30
2023-05-12T02:40:59.857Z,1.30
2023-05-12T02:43:26.502Z,1.48
2023-05-12T02:45:53.325Z,1.73
2023-05-12T02:48:20.024Z,1.42
2023-05-12T02:50:46.639Z,1.58
2023-05-12T02:53:13.346Z,1.77
2023-05-12T02:55:40.040Z,1.60
2023-05-12T02:58:07.220Z,1.40
2023-05-12T03:00:33.893Z,1.80
2023-05-12T03:03:00.830Z,1.60
2023-05-12T03:05:27.501Z,1.80
2023-05-12T03:07:54.231Z,1.77
2023-05-12T03:10:21.303Z,1.63
2023-05-12T03:12:48.156Z,1.73
2023-05-12T03:15:14.949Z,1.30
2023-05-12T03:17:41.870Z,2.15
2023-05-12T03:20:08.858Z,2.10
2023-05-12T03:22:35.732Z,2.08
2023-05-12T03:25:04.073Z,2.33
2023-05-12T03:27:32.860Z,2.30
2023-05-12T03:30:02.289Z,2.13
2023-05-12T03:32:28.991Z,1.98
2023-05-12T03:34:55.759Z,2.03
2023-05-12T03:37:22.475Z,2.05
2023-05-12T03:39:49.224Z,2.67
2023-05-12T03:42:16.140Z,2.80
2023-05-12T03:44:42.890Z,2.42
2023-05-12T03:47:09.703Z,2.30
2023-05-12T03:49:36.406Z,2.40
2023-05-12T03:52:03.105Z,2.45
2023-05-12T03:54:29.824Z,2.40
2023-05-12T03:56:56.417Z,2.63
2023-05-12T03:59:23.175Z,2.95
2023-05-12T04:01:49.824Z,2.20
2023-05-12T04:04:16.909Z,2.63
2023-05-12T04:06:43.729Z,2.20
2023-05-12T04:09:10.680Z,2.80
2023-05-12T04:11:37.312Z,2.70
2023-05-12T04:14:03.994Z,2.85
2023-05-12T04:16:30.725Z,3.10
2023-05-12T04:18:57.598Z,3.40
2023-05-12T04:21:24.445Z,3.47
2023-05-12T04:23:52.803Z,3.53
2023-05-12T04:26:19.623Z,3.20
2023-05-12T04:28:47.776Z,3.50
2023-05-12T04:31:14.460Z,3.38
2023-05-12T04:33:41.195Z,3.28
2023-05-12T04:36:08.162Z,3.65
2023-05-12T04:38:34.732Z,3.45
2023-05-12T04:41:01.394Z,3.45
2023-05-12T04:45:59.950Z,3.33
2023-05-12T04:48:26.877Z,3.38
2023-05-12T04:50:53.554Z,3.08
2023-05-12T04:53:20.196Z,3.05
2023-05-12T04:55:46.949Z,3.13
2023-05-12T04:58:13.896Z,3.53
2023-05-12T05:00:40.781Z,3.20
2023-05-12T05:03:07.721Z,2.97
2023-05-12T05:05:34.435Z,3.05
2023-05-12T05:08:01.726Z,3.35
2023-05-12T05:10:28.510Z,2.72
2023-05-12T05:12:55.248Z,3.60
2023-05-12T05:15:22.026Z,3.00
2023-05-12T05:17:49.846Z,2.53
2023-05-12T05:20:16.990Z,3.10
2023-05-12T05:22:43.798Z,2.70
2023-05-12T05:25:10.936Z,2.95
2023-05-12T05:27:38.830Z,2.70
2023-05-12T05:30:09.389Z,2.78
2023-05-12T05:32:37.350Z,2.40
2023-05-12T05:35:04.188Z,2.40
2023-05-12T05:37:30.951Z,2.70
2023-05-12T05:39:57.719Z,2.83
2023-05-12T05:42:24.445Z,2.17
2023-05-12T05:44:51.121Z,1.98
2023-05-12T05:47:17.706Z,2.10
2023-05-12T05:49:44.549Z,2.20
2023-05-12T05:52:11.221Z,2.30
2023-05-12T05:54:38.141Z,2.40
2023-05-12T05:57:04.993Z,2.30
2023-05-12T05:59:32.333Z,1.70
2023-05-12T06:01:59.146Z,2.00
2023-05-12T06:04:26.034Z,1.73
2023-05-12T06:06:52.870Z,1.90
2023-05-12T06:09:19.590Z,2.45
2023-05-12T06:11:46.224Z,1.45
2023-05-12T06:14:13.050Z,1.70
2023-05-12T06:16:39.906Z,1.42
2023-05-12T06:19:06.866Z,2.20
2023-05-12T06:21:33.626Z,2.03
2023-05-12T06:24:00.454Z,1.60
2023-05-12T06:26:27.203Z,1.70
2023-05-12T06:28:53.937Z,1.83
2023-05-12T06:31:20.885Z,1.50
2023-05-12T06:33:47.850Z,1.52
2023-05-12T06:36:14.657Z,1.60
2023-05-12T06:38:41.363Z,1.67
2023-05-12T06:41:08.036Z,1.63
2023-05-12T06:43:34.747Z,1.80
2023-05-12T06:46:02.066Z,1.60
2023-05-12T06:48:28.823Z,1.13
2023-05-12T06:50:55.526Z,1.17
2023-05-12T06:53:24.081Z,1.60
2023-05-12T06:55:53.740Z,1.45
2023-05-12T06:58:22.185Z,1.25
2023-05-12T07:00:48.973Z,1.50
2023-05-12T07:03:15.827Z,1.20
2023-05-12T07:05:42.911Z,1.38
2023-05-12T07:08:09.619Z,1.10
2023-05-12T07:10:38.064Z,1.42
2023-05-12T07:13:04.870Z,1.30
2023-05-12T07:15:32.973Z,1.42
2023-05-12T07:17:59.997Z,1.20
2023-05-12T07:20:27.274Z,1.23
2023-05-12T07:22:54.886Z,1.42
2023-05-12T07:25:22.147Z,1.00
2023-05-12T07:27:50.020Z,1.10
2023-05-12T07:30:17.243Z,1.50
2023-05-12T07:32:44.221Z,1.63
2023-05-12T07:35:11.004Z,1.55
2023-05-12T07:37:37.807Z,1.58
2023-05-12T07:40:04.908Z,1.58
2023-05-12T07:42:31.721Z,1.60
2023-05-12T07:44:58.438Z,1.40
2023-05-12T07:47:25.276Z,2.25
2023-05-12T07:49:51.980Z,1.90
2023-05-12T07:52:18.778Z,1.20
2023-05-12T07:54:45.680Z,1.55
2023-05-12T07:57:12.446Z,1.92
2023-05-12T07:59:39.133Z,1.25
2023-05-12T08:02:05.767Z,1.63
2023-05-12T08:04:32.496Z,1.70
2023-05-12T08:06:59.825Z,1.42
2023-05-12T08:09:26.642Z,2.03
2023-05-12T08:11:53.467Z,1.25
2023-05-12T08:14:20.402Z,1.63
2023-05-12T08:16:47.388Z,1.48
2023-05-12T08:19:14.280Z,1.30
2023-05-12T08:21:41.103Z,1.35
2023-05-12T08:24:07.721Z,1.38
2023-05-12T08:26:34.572Z,1.58
2023-05-12T08:29:01.885Z,1.45
2023-05-12T08:31:28.563Z,1.27
2023-05-12T08:34:08.922Z,1.55
2023-05-12T08:36:37.464Z,1.33
2023-05-12T08:39:04.466Z,1.60
2023-05-12T08:41:37.384Z,1.48
2023-05-12T08:44:05.034Z,1.45
2023-05-12T08:46:32.405Z,1.40
2023-05-12T08:49:04.490Z,0.93
2023-05-12T08:51:37.022Z,1.23
2023-05-12T08:54:04.553Z,1.40
2023-05-12T08:59:02.807Z,1.23
2023-05-12T09:01:29.938Z,2.10
2023-05-12T09:03:56.659Z,1.65
2023-05-12T09:06:23.464Z,1.20
2023-05-12T09:08:50.247Z,1.27
2023-05-12T09:11:17.556Z,1.52
2023-05-12T09:14:08.737Z,1.52
2023-05-12T09:16:41.787Z,1.38
2023-05-12T09:19:08.729Z,1.83
2023-05-12T09:21:35.537Z,1.40
2023-05-12T09:24:07.644Z,2.05
2023-05-12T09:26:52.646Z,1.42
2023-05-12T09:29:28.353Z,1.42
2023-05-12T09:31:58.822Z,1.77
2023-05-12T09:34:30.606Z,1.40
2023-05-12T09:37:02.259Z,1.27
2023-05-12T09:39:29.200Z,1.63
2023-05-12T09:41:56.048Z,1.55
2023-05-12T09:44:24.119Z,1.33
2023-05-12T09:46:51.509Z,2.00
2023-05-12T09:49:28.088Z,1.50
2023-05-12T09:52:01.129Z,1.70
2023-05-12T09:54:30.322Z,1.83
2023-05-12T09:57:02.572Z,1.70
2023-05-12T09:59:34.477Z,1.67
2023-05-12T10:02:02.518Z,1.70
2023-05-12T10:04:30.530Z,1.80
2023-05-12T10:06:57.961Z,1.48
2023-05-12T10:09:29.361Z,1.80
2023-05-12T10:11:56.715Z,1.70
2023-05-12T10:14:23.838Z,1.92
2023-05-12T10:16:51.201Z,2.20
2023-05-12T10:19:18.932Z,1.63
2023-05-12T10:21:46.580Z,1.48
2023-05-12T10:24:15.610Z,1.70
2023-05-12T10:26:43.083Z,1.30
2023-05-12T10:29:10.581Z,1.67
2023-05-12T10:31:38.669Z,1.52
2023-05-12T10:34:06.814Z,1.58
2023-05-12T10:36:50.327Z,2.00
2023-05-12T10:39:17.454Z,1.52
2023-05-12T10:41:44.210Z,1.50
2023-05-12T10:44:11.276Z,1.90
2023-05-12T10:46:38.094Z,1.20
2023-05-12T10:49:10.253Z,1.90
2023-05-12T10:51:43.163Z,1.55
2023-05-12T10:54:11.290Z,1.40
2023-05-12T10:56:38.650Z,1.52
2023-05-12T10:59:25.446Z,1.60
2023-05-12T11:02:05.358Z,1.65
2023-05-12T11:04:46.928Z,1.63
2023-05-12T11:07:16.625Z,1.60
2023-05-12T11:09:56.608Z,1.52
2023-05-12T11:12:26.905Z,1.52
2023-05-12T11:14:54.009Z,1.45
2023-05-12T11:17:21.148Z,1.63
2023-05-12T11:19:50.321Z,1.48
2023-05-12T11:22:21.685Z,1.10
2023-05-12T11:24:49.269Z,1.70
2023-05-12T11:27:18.215Z,1.38
2023-05-12T11:29:47.239Z,1.63
2023-05-12T11:32:15.819Z,1.25
2023-05-12T11:34:42.379Z,1.30
2023-05-12T11:37:08.954Z,1.45
2023-05-12T11:39:36.464Z,1.23
2023-05-12T11:42:12.048Z,0.98
2023-05-12T11:44:49.543Z,1.85
2023-05-12T11:47:17.088Z,1.20
2023-05-12T11:49:56.863Z,1.25
2023-05-12T11:52:24.661Z,1.73
2023-05-12T11:54:59.157Z,1.20
2023-05-12T11:57:30.698Z,1.23
2023-05-12T12:00:02.763Z,1.10
2023-05-12T12:02:29.800Z,1.50
2023-05-12T12:04:57.119Z,1.55
2023-05-12T12:07:31.758Z,1.15
2023-05-12T12:09:59.379Z,1.10
2023-05-12T12:12:26.165Z,1.70
2023-05-12T12:14:52.933Z,1.20
2023-05-12T12:17:19.489Z,1.35
2023-05-12T12:19:47.865Z,1.00
2023-05-12T12:22:14.588Z,1.42
2023-05-12T12:24:41.352Z,1.42
2023-05-12T12:27:08.001Z,1.17
2023-05-12T12:29:34.829Z,1.52
2023-05-12T12:32:01.416Z,1.33
2023-05-12T12:34:28.003Z,1.30
2023-05-12T12:36:54.637Z,1.55
2023-05-12T12:39:21.854Z,1.20
2023-05-12T12:41:48.466Z,1.48
2023-05-12T12:44:15.153Z,1.52
2023-05-12T12:46:42.193Z,1.30
2023-05-12T12:49:08.851Z,0.90
2023-05-12T12:51:45.638Z,1.58
2023-05-12T12:54:13.698Z,1.30
2023-05-12T12:56:40.318Z,1.33
2023-05-12T12:59:06.951Z,1.50
2023-05-12T13:01:34.025Z,1.35
2023-05-12T13:04:01.222Z,1.30
2023-05-12T13:06:29.283Z,1.05
2023-05-12T13:08:56.584Z,1.02
2023-05-12T13:11:23.416Z,1.60
2023-05-12T13:13:50.027Z,1.27
2023-05-12T13:16:17.355Z,1.30
2023-05-12T13:18:44.245Z,1.85
2023-05-12T13:21:10.945Z,1.40
2023-05-12T13:23:37.525Z,1.40
2023-05-12T13:26:04.182Z,1.30
2023-05-12T13:28:30.876Z,1.10
2023-05-12T13:30:57.645Z,1.73
2023-05-12T13:33:24.360Z,1.50
2023-05-12T13:35:50.986Z,1.58
2023-05-12T13:38:18.222Z,1.40
2023-05-12T13:40:44.794Z,1.63
2023-05-12T13:43:12.402Z,1.30
2023-05-12T13:45:38.987Z,1.50
2023-05-12T13:48:05.724Z,1.58
2023-05-12T13:50:33.719Z,1.63
2023-05-12T13:53:00.628Z,1.98
2023-05-12T13:55:27.597Z,2.03
2023-05-12T13:57:54.360Z,1.67
2023-05-12T14:00:21.189Z,1.60
2023-05-12T14:02:47.823Z,1.70
2023-05-12T14:05:14.828Z,1.50
2023-05-12T14:07:42.709Z,1.50
2023-05-12T14:10:10.187Z,2.10
2023-05-12T14:12:41.323Z,1.80
2023-05-12T14:17:53.074Z,1.70
2023-05-12T14:20:19.789Z,1.85
2023-05-12T14:22:46.479Z,1.73
2023-05-12T14:25:13.100Z,1.98
2023-05-12T14:27:39.674Z,1.88
2023-05-12T14:30:07.658Z,1.95
2023-05-12T14:32:34.485Z,1.83
2023-05-12T14:35:01.406Z,1.65
2023-05-12T14:37:27.964Z,1.95
2023-05-12T14:39:56.755Z,1.70
2023-05-12T14:42:23.854Z,1.90
2023-05-12T14:44:50.555Z,1.73
2023-05-12T14:47:17.349Z,1.77
2023-05-12T14:49:45.625Z,2.00
2023-05-12T14:52:12.447Z,1.77
2023-05-12T14:54:39.216Z,1.80
2023-05-12T14:57:06.173Z,1.80
2023-05-12T14:59:33.085Z,1.70
2023-05-12T15:02:00.099Z,2.17
2023-05-12T15:04:29.596Z,1.77
2023-05-12T15:06:56.660Z,2.00
2023-05-12T15:09:23.360Z,1.85
2023-05-12T15:11:51.537Z,2.08
2023-05-12T15:14:18.728Z,2.03
2023-05-12T15:16:45.683Z,2.40
2023-05-12T15:19:12.609Z,2.42
2023-05-12T15:21:39.585Z,1.95
2023-05-12T15:24:06.601Z,2.05
2023-05-12T15:26:35.192Z,2.15
2023-05-12T15:29:03.572Z,2.10
2023-05-12T15:31:30.694Z,2.13
2023-05-12T15:33:58.045Z,1.90
2023-05-12T15:36:25.097Z,1.80
2023-05-12T15:38:51.978Z,2.30
2023-05-12T15:41:18.838Z,2.20
2023-05-12T15:43:45.618Z,2.10
2023-05-12T15:46:12.409Z,2.33
2023-05-12T15:48:39.510Z,2.47
2023-05-12T15:51:07.943Z,2.30
2023-05-12T15:53:34.624Z,2.50
2023-05-12T15:56:02.308Z,2.50
2023-05-12T15:58:29.264Z,2.42
2023-05-12T16:00:56.239Z,2.63
2023-05-12T16:03:24.268Z,2.92
2023-05-12T16:05:51.236Z,2.38
2023-05-12T16:08:18.161Z,2.65
2023-05-12T16:10:45.002Z,2.08
2023-05-12T16:13:11.936Z,2.63
2023-05-12T16:15:38.533Z,2.05
2023-05-12T16:18:07.571Z,2.38
2023-05-12T16:20:35.924Z,2.40
2023-05-12T16:23:02.715Z,1.80
2023-05-12T16:25:29.421Z,1.80
2023-05-12T16:27:56.172Z,2.10
2023-05-12T16:30:22.952Z,2.13
2023-05-12T16:32:49.881Z,2.05
2023-05-12T16:35:16.697Z,2.20
2023-05-12T16:37:43.628Z,1.95
2023-05-12T16:40:10.669Z,2.10
2023-05-12T16:42:37.577Z,2.00
2023-05-12T16:45:04.699Z,2.38
2023-05-12T16:47:31.506Z,1.80
2023-05-12T16:49:59.268Z,2.38
2023-05-12T16:52:27.004Z,2.03
2023-05-12T16:54:56.319Z,2.30
2023-05-12T16:57:24.104Z,2.00
2023-05-12T16:59:51.185Z,2.08
2023-05-12T17:02:17.938Z,2.15
2023-05-12T17:04:44.925Z,2.00
2023-05-12T17:07:11.609Z,2.35
2023-05-12T17:09:38.565Z,2.47
2023-05-12T17:12:06.908Z,2.47
2023-05-12T17:14:35.030Z,2.00
2023-05-12T17:17:02.355Z,2.28
2023-05-12T17:19:29.719Z,1.80
2023-05-12T17:21:56.838Z,2.78
2023-05-12T17:24:23.806Z,2.38
2023-05-12T17:26:50.922Z,2.70
2023-05-12T17:29:17.841Z,2.05
2023-05-12T17:31:44.894Z,2.50
2023-05-12T17:34:12.150Z,2.30
2023-05-12T17:36:39.157Z,2.22
2023-05-12T17:39:07.405Z,2.38
2023-05-12T17:41:34.426Z,2.30
2023-05-12T17:44:01.450Z,2.17
2023-05-12T17:46:28.443Z,2.28
2023-05-12T17:48:55.671Z,2.15
2023-05-12T17:51:22.627Z,2.60
2023-05-12T17:53:49.536Z,2.20
2023-05-12T17:56:16.532Z,2.35
2023-05-12T17:58:43.567Z,3.03
2023-05-12T18:01:10.675Z,2.63
2023-05-12T18:03:38.169Z,2.58
2023-05-12T18:06:06.103Z,2.15
2023-05-12T18:08:33.027Z,2.45
2023-05-12T18:11:00.134Z,2.28
2023-05-12T18:13:27.328Z,2.55
2023-05-12T18:15:55.064Z,2.53
2023-05-12T18:18:26.211Z,2.65
2023-05-12T18:23:22.831Z,2.28
2023-05-12T18:25:49.973Z,2.40
2023-05-12T18:28:19.449Z,2.38
2023-05-12T18:30:46.486Z,2.20
2023-05-12T18:33:13.710Z,2.42
2023-05-12T18:35:43.081Z,2.70
2023-05-12T18:38:10.142Z,3.00
2023-05-12T18:40:37.522Z,2.58
2023-05-12T18:43:04.420Z,2.30
2023-05-12T18:45:31.511Z,2.65
2023-05-12T18:47:58.319Z,2.53
2023-05-12T18:50:25.366Z,2.88
2023-05-12T18:52:52.297Z,2.50
2023-05-12T18:55:19.296Z,2.97
2023-05-12T18:57:46.650Z,2.58
2023-05-12T19:00:14.018Z,3.00
2023-05-12T19:02:42.498Z,3.40
2023-05-12T19:05:11.121Z,2.60
2023-05-12T19:07:38.110Z,2.90
2023-05-12T19:10:05.532Z,2.53
2023-05-12T19:12:32.510Z,2.83
2023-05-12T19:14:59.753Z,2.75
2023-05-12T19:17:26.928Z,2.63
2023-05-12T19:19:53.949Z,2.75
2023-05-12T19:22:25.052Z,2.80
2023-05-12T19:24:52.039Z,2.60
2023-05-12T19:27:19.166Z,3.30
2023-05-12T19:29:46.149Z,2.40
2023-05-12T19:32:13.471Z,3.08
2023-05-12T19:34:43.418Z,2.63
2023-05-12T19:37:10.252Z,2.60
2023-05-12T19:39:37.277Z,2.78
2023-05-12T19:42:04.421Z,2.83
2023-05-12T19:44:31.379Z,2.40
2023-05-12T19:47:04.664Z,2.28
2023-05-12T19:49:35.685Z,2.63
2023-05-12T19:52:03.836Z,2.40
2023-05-12T19:54:30.968Z,3.13
2023-05-12T19:56:58.040Z,2.50
2023-05-12T19:59:25.205Z,2.65
2023-05-12T20:01:52.220Z,2.78
2023-05-12T20:04:19.264Z,2.83
2023-05-12T20:06:46.660Z,2.60
2023-05-12T20:09:16.612Z,2.35
2023-05-12T20:11:43.721Z,2.33
2023-05-12T20:14:10.946Z,2.55
2023-05-12T20:16:38.538Z,2.92
2023-05-12T20:19:05.623Z,2.35
2023-05-12T20:21:32.750Z,2.65
2023-05-12T20:23:59.601Z,2.60
2023-05-12T20:26:27.527Z,2.90
2023-05-12T20:28:54.294Z,2.35
2023-05-12T20:31:21.411Z,2.45
2023-05-12T20:33:48.385Z,2.72
2023-05-12T20:36:15.416Z,2.85
2023-05-12T20:38:42.364Z,2.67
2023-05-12T20:41:09.655Z,2.90
2023-05-12T20:43:36.629Z,2.72
2023-05-12T20:46:04.343Z,3.15
2023-05-12T20:48:31.358Z,3.03
2023-05-12T20:50:58.427Z,3.38
2023-05-12T20:53:25.484Z,3.45
2023-05-12T20:55:52.264Z,3.60
2023-05-12T20:58:19.155Z,3.38
2023-05-12T21:00:45.884Z,3.38
2023-05-12T21:03:17.131Z,3.63
2023-05-12T21:05:47.837Z,3.45
2023-05-12T21:08:14.686Z,3.60
2023-05-12T21:10:41.577Z,3.80
2023-05-12T21:13:11.499Z,3.55
2023-05-12T21:15:38.503Z,4.15
2023-05-12T21:18:05.255Z,3.70
2023-05-12T21:20:32.142Z,3.78
2023-05-12T21:22:59.029Z,3.42
2023-05-12T21:25:26.116Z,3.80
2023-05-12T21:27:53.262Z,3.60
2023-05-12T21:30:23.163Z,3.83
2023-05-12T21:32:50.753Z,3.75
2023-05-12T21:35:20.338Z,3.92
2023-05-12T21:37:49.532Z,3.45
2023-05-12T21:40:19.939Z,3.53
2023-05-12T21:42:47.076Z,3.13
2023-05-12T21:45:14.016Z,3.67
2023-05-12T21:47:41.066Z,3.33
2023-05-12T21:50:08.288Z,3.42
2023-05-12T21:52:35.824Z,3.10
2023-05-12T21:55:04.811Z,3.80
2023-05-12T21:57:31.923Z,3.80
2023-05-12T22:00:03.892Z,3.35
2023-05-12T22:02:31.067Z,3.58
2023-05-12T22:04:57.841Z,3.60
2023-05-12T22:07:24.780Z,3.30
2023-05-12T22:09:52.100Z,4.05
2023-05-12T22:12:19.257Z,3.60
2023-05-12T22:14:46.118Z,3.53
2023-05-12T22:17:13.066Z,3.67
2023-05-12T22:19:39.920Z,3.80
2023-05-12T22:22:06.872Z,3.47
2023-05-12T22:24:33.749Z,3.70
2023-05-12T22:27:00.637Z,3.00
2023-05-12T22:29:27.483Z,3.25
2023-05-12T22:31:54.182Z,3.35
2023-05-12T22:34:21.901Z,3.78
2023-05-12T22:36:48.810Z,3.30
2023-05-12T22:39:15.857Z,3.10
2023-05-12T22:41:42.771Z,3.90
2023-05-12T22:44:10.014Z,3.35
2023-05-12T22:46:36.893Z,3.92
2023-05-12T22:49:03.926Z,3.17
2023-05-12T22:51:33.255Z,3.08
2023-05-12T22:54:00.261Z,3.65
2023-05-12T22:56:27.300Z,2.97
2023-05-12T22:58:54.265Z,3.80
2023-05-12T23:01:21.333Z,3.80
2023-05-12T23:03:48.149Z,3.55
2023-05-12T23:06:15.222Z,3.58
2023-05-12T23:08:42.265Z,3.53
2023-05-12T23:11:09.737Z,3.80
2023-05-12T23:13:36.660Z,3.95
2023-05-12T23:16:06.597Z,4.15
2023-05-12T23:18:33.474Z,3.92
2023-05-12T23:21:00.435Z,4.18
2023-05-12T23:23:27.430Z,3.90
2023-05-12T23:25:54.988Z,3.63
2023-05-12T23:28:22.104Z,3.70
2023-05-12T23:30:49.133Z,3.80
2023-05-12T23:33:16.318Z,4.50
2023-05-12T23:35:43.543Z,4.03
2023-05-12T23:38:10.673Z,4.05
2023-05-12T23:40:39.426Z,3.50
2023-05-12T23:43:06.931Z,4.65
2023-05-12T23:45:34.416Z,4.20
2023-05-12T23:48:01.333Z,4.13
2023-05-12T23:50:28.150Z,4.55
2023-05-12T23:52:54.978Z,4.20
2023-05-12T23:55:21.839Z,4.18
2023-05-12T23:57:49.320Z,4.35
